Time;durP1;ratioP1;P1;durP2;ratioP2;P2;SDS_P1;SDS_P2;PMS_P1;PMS_P2;Temp;Humidity;BMP_temperature;BMP_pressure;BME280_temperature;BME280_humidity;BME280_pressure;Samples;Min_cycle;Max_cycle;Signal;HPM_P1;HPM_P2
2023/05/15 00:02:34;;;;;;;;;;;11.88;26.45;;;;;;2675003;76;20328;-90
2023/05/15 00:06:02;;;;;;;;;;;11.68;27.48;;;;;;2674387;76;20320;-90
2023/05/15 00:09:30;;;;;;;;;;;11.73;27.61;;;;;;2674401;76;20316;-90
2023/05/15 00:12:58;;;;;;;;;;;11.67;27.22;;;;;;2674885;76;20306;-90
2023/05/15 00:16:26;;;;;;;;;;;11.51;28.45;;;;;;2675267;76;20341;-90
2023/05/15 00:19:57;;;;;;;;;;;11.39;29.03;;;;;;2674822;76;20337;-90
2023/05/15 00:23:25;;;;;;;;;;;11.27;30.03;;;;;;2674863;76;20350;-90
2023/05/15 00:26:53;;;;;;;;;;;11.34;29.51;;;;;;2674716;76;20334;-91
2023/05/15 00:30:21;;;;;;;;;;;11.38;30.03;;;;;;2674756;76;20329;-90
2023/05/15 00:33:49;;;;;;;;;;;11.44;29.97;;;;;;2674784;76;20343;-90
2023/05/15 00:37:17;;;;;;;;;;;11.55;29.10;;;;;;2674083;76;20313;-90
2023/05/15 00:40:45;;;;;;;;;;;11.46;28.40;;;;;;2674764;76;20327;-90
2023/05/15 00:44:13;;;;;;;;;;;11.36;28.91;;;;;;2674753;76;20330;-90
2023/05/15 00:47:41;;;;;;;;;;;11.22;31.16;;;;;;2674615;76;20353;-90
2023/05/15 00:51:10;;;;;;;;;;;11.24;32.09;;;;;;2674707;76;20362;-90
2023/05/15 00:54:38;;;;;;;;;;;11.24;31.61;;;;;;2674801;76;20299;-90
2023/05/15 00:58:06;;;;;;;;;;;11.37;31.41;;;;;;2674443;76;20310;-90
2023/05/15 01:01:34;;;;;;;;;;;11.24;31.72;;;;;;2674732;76;20313;-90
2023/05/15 01:05:03;;;;;;;;;;;11.28;31.54;;;;;;2674507;76;20336;-91
2023/05/15 01:08:31;;;;;;;;;;;11.33;31.07;;;;;;2674855;76;20784;-91
2023/05/15 01:11:59;;;;;;;;;;;11.43;30.92;;;;;;2674539;76;20305;-91
2023/05/15 01:15:27;;;;;;;;;;;11.49;30.73;;;;;;2674921;76;20312;-91
2023/05/15 01:18:55;;;;;;;;;;;11.53;30.37;;;;;;2674466;76;20307;-90
2023/05/15 01:22:23;;;;;;;;;;;11.55;30.01;;;;;;2674671;76;20310;-90
2023/05/15 01:25:52;;;;;;;;;;;11.49;29.26;;;;;;2674717;76;20302;-90
2023/05/15 01:29:21;;;;;;;;;;;11.42;28.77;;;;;;2674851;76;20770;-90
2023/05/15 01:32:49;;;;;;;;;;;11.37;28.32;;;;;;2674453;76;20330;-90
2023/05/15 01:36:17;;;;;;;;;;;11.30;28.03;;;;;;2674044;76;20332;-90
2023/05/15 01:39:45;;;;;;;;;;;11.19;28.93;;;;;;2674738;76;20315;-90
2023/05/15 01:43:13;;;;;;;;;;;11.07;29.35;;;;;;2674603;76;20315;-91
2023/05/15 01:46:41;;;;;;;;;;;10.97;30.05;;;;;;2674376;76;20340;-91
2023/05/15 01:50:09;;;;;;;;;;;10.95;29.54;;;;;;2674613;76;20318;-91
2023/05/15 01:53:37;;;;;;;;;;;10.75;31.23;;;;;;2674866;76;20319;-91
2023/05/15 01:57:05;;;;;;;;;;;10.73;30.74;;;;;;2674518;76;20322;-91
2023/05/15 02:00:33;;;;;;;;;;;10.71;30.36;;;;;;2674366;76;20677;-91
2023/05/15 02:04:01;;;;;;;;;;;10.66;31.76;;;;;;2674986;76;20425;-90
2023/05/15 02:07:30;;;;;;;;;;;10.58;33.05;;;;;;2674837;76;20478;-90
2023/05/15 02:11:00;;;;;;;;;;;10.64;34.05;;;;;;2674323;76;20720;-91
2023/05/15 02:14:28;;;;;;;;;;;10.89;33.64;;;;;;2675052;76;20324;-90
2023/05/15 02:17:56;;;;;;;;;;;11.10;33.75;;;;;;2674729;76;20310;-91
2023/05/15 02:21:24;;;;;;;;;;;11.19;33.52;;;;;;2673600;76;20329;-91
2023/05/15 02:24:52;;;;;;;;;;;11.27;33.43;;;;;;2674230;76;20345;-91
2023/05/15 02:28:20;;;;;;;;;;;11.16;33.76;;;;;;2674176;76;20306;-91
2023/05/15 02:31:48;;;;;;;;;;;11.23;34.28;;;;;;2674266;76;20502;-90
2023/05/15 02:35:16;;;;;;;;;;;11.30;34.08;;;;;;2674579;76;20326;-90
2023/05/15 02:38:44;;;;;;;;;;;11.33;33.85;;;;;;2674419;76;20301;-90
2023/05/15 02:42:12;;;;;;;;;;;11.30;34.28;;;;;;2674402;76;20378;-90
2023/05/15 02:45:40;;;;;;;;;;;11.33;34.15;;;;;;2674280;76;20303;-90
2023/05/15 02:49:09;;;;;;;;;;;11.30;34.32;;;;;;2674053;76;20332;-90
2023/05/15 02:52:37;;;;;;;;;;;11.19;35.07;;;;;;2674113;76;20313;-90
2023/05/15 02:56:06;;;;;;;;;;;11.27;35.13;;;;;;2674049;76;20325;-90
2023/05/15 02:59:34;;;;;;;;;;;11.30;34.99;;;;;;2674492;76;20870;-90
2023/05/15 03:03:02;;;;;;;;;;;11.36;34.99;;;;;;2674579;76;20776;-90
2023/05/15 03:06:30;;;;;;;;;;;11.39;34.65;;;;;;2674788;76;20755;-90
2023/05/15 03:09:58;;;;;;;;;;;11.37;34.91;;;;;;2673964;76;20309;-90
2023/05/15 03:13:26;;;;;;;;;;;11.32;35.25;;;;;;2674017;76;20316;-90
2023/05/15 03:16:54;;;;;;;;;;;11.40;34.96;;;;;;2674453;76;20322;-90
2023/05/15 03:20:22;;;;;;;;;;;11.40;35.04;;;;;;2674835;76;20354;-91
2023/05/15 03:23:50;;;;;;;;;;;11.40;35.04;;;;;;2674273;76;20308;-90
2023/05/15 03:27:19;;;;;;;;;;;11.43;34.54;;;;;;2674014;76;20325;-91
2023/05/15 03:30:47;;;;;;;;;;;11.46;34.08;;;;;;2674005;76;20754;-91
2023/05/15 03:34:15;;;;;;;;;;;11.47;33.60;;;;;;2674381;76;20780;-91
2023/05/15 03:37:43;;;;;;;;;;;11.48;33.41;;;;;;2674590;76;20755;-91
2023/05/15 03:41:11;;;;;;;;;;;11.37;33.91;;;;;;2674093;76;20398;-90
2023/05/15 03:44:40;;;;;;;;;;;11.42;33.72;;;;;;2675159;76;20349;-91
2023/05/15 03:48:08;;;;;;;;;;;11.52;33.45;;;;;;2674228;76;20353;-90
2023/05/15 03:51:36;;;;;;;;;;;11.41;33.70;;;;;;2673802;76;20312;-90
2023/05/15 03:55:04;;;;;;;;;;;11.43;34.01;;;;;;2674406;76;20319;-90
2023/05/15 03:58:32;;;;;;;;;;;11.40;33.94;;;;;;2673912;76;20316;-90
2023/05/15 04:02:00;;;;;;;;;;;11.48;33.79;;;;;;2674244;76;20349;-90
2023/05/15 04:05:33;;;;;;;;;;;11.54;33.68;;;;;;2674096;76;20321;-90
2023/05/15 04:08:58;;;;;;;;;;;11.57;33.58;;;;;;2673842;76;20318;-91
2023/05/15 04:12:28;;;;;;;;;;;11.67;33.57;;;;;;2674187;76;20309;-90
2023/05/15 04:15:57;;;;;;;;;;;11.73;33.52;;;;;;2674336;76;20389;-90
2023/05/15 04:19:25;;;;;;;;;;;11.79;33.44;;;;;;2674669;76;20308;-90
2023/05/15 04:22:53;;;;;;;;;;;11.90;33.38;;;;;;2674537;76;20375;-90
2023/05/15 04:26:21;;;;;;;;;;;11.98;33.05;;;;;;2673767;76;20763;-90
2023/05/15 04:29:49;;;;;;;;;;;12.07;33.18;;;;;;2674901;76;20346;-90
2023/05/15 04:33:17;;;;;;;;;;;12.20;33.21;;;;;;2674563;76;20342;-90
2023/05/15 04:36:45;;;;;;;;;;;12.29;32.93;;;;;;2674266;76;20320;-88
2023/05/15 04:40:15;;;;;;;;;;;12.26;32.12;;;;;;2674115;76;20353;-88
2023/05/15 04:43:43;;;;;;;;;;;12.29;31.81;;;;;;2674544;76;20308;-89
2023/05/15 04:47:11;;;;;;;;;;;12.51;32.30;;;;;;2673553;76;20324;-89
2023/05/15 04:50:39;;;;;;;;;;;12.73;32.03;;;;;;2673663;76;20341;-88
2023/05/15 04:54:07;;;;;;;;;;;12.94;31.57;;;;;;2673325;76;20341;-89
2023/05/15 04:57:35;;;;;;;;;;;12.91;30.12;;;;;;2674718;76;20369;-89
2023/05/15 05:01:03;;;;;;;;;;;12.82;30.11;;;;;;2673814;76;20359;-89
2023/05/15 05:04:31;;;;;;;;;;;12.78;30.28;;;;;;2673377;76;20314;-89
2023/05/15 05:07:59;;;;;;;;;;;12.69;30.50;;;;;;2673181;76;20354;-88
2023/05/15 05:11:28;;;;;;;;;;;12.67;30.63;;;;;;2672711;76;20342;-87
2023/05/15 05:14:56;;;;;;;;;;;12.82;30.95;;;;;;2673096;76;20800;-86
2023/05/15 05:18:24;;;;;;;;;;;12.79;30.29;;;;;;2673313;76;20304;-87
2023/05/15 05:21:52;;;;;;;;;;;13.05;30.11;;;;;;2670182;76;20351;-87
2023/05/15 05:25:20;;;;;;;;;;;13.19;29.63;;;;;;2672696;76;20393;-86
2023/05/15 05:28:48;;;;;;;;;;;13.23;29.38;;;;;;2672810;76;20353;-87
2023/05/15 05:32:16;;;;;;;;;;;13.25;28.95;;;;;;2673442;76;20340;-89
2023/05/15 05:35:44;;;;;;;;;;;13.10;29.27;;;;;;2672840;76;20318;-88
2023/05/15 05:39:12;;;;;;;;;;;13.19;29.21;;;;;;2673012;76;20323;-84
2023/05/15 05:42:41;;;;;;;;;;;13.14;28.87;;;;;;2673650;76;20343;-89
2023/05/15 05:46:09;;;;;;;;;;;13.01;29.00;;;;;;2674027;76;20334;-88
2023/05/15 05:49:38;;;;;;;;;;;12.87;28.64;;;;;;2673586;76;20356;-89
2023/05/15 05:53:06;;;;;;;;;;;12.91;29.49;;;;;;2674490;76;20347;-88
2023/05/15 05:56:34;;;;;;;;;;;12.80;29.62;;;;;;2674312;76;20328;-89
2023/05/15 06:00:05;;;;;;;;;;;12.99;29.27;;;;;;2674281;76;20354;-88
2023/05/15 06:03:33;;;;;;;;;;;13.26;28.97;;;;;;2674417;76;20314;-88
2023/05/15 06:07:01;;;;;;;;;;;13.34;28.20;;;;;;2674604;76;20316;-88
2023/05/15 06:10:29;;;;;;;;;;;13.45;28.07;;;;;;2674482;76;20341;-88
2023/05/15 06:13:58;;;;;;;;;;;13.31;27.33;;;;;;2673716;76;20362;-89
2023/05/15 06:17:26;;;;;;;;;;;13.45;27.23;;;;;;2673508;76;20786;-88
2023/05/15 06:20:54;;;;;;;;;;;13.54;26.97;;;;;;2674373;76;20344;-88
2023/05/15 06:24:22;;;;;;;;;;;13.93;26.89;;;;;;2673795;76;20781;-89
2023/05/15 06:27:50;;;;;;;;;;;13.91;25.52;;;;;;2673941;76;20848;-88
2023/05/15 06:31:18;;;;;;;;;;;14.20;25.01;;;;;;2674264;76;20329;-88
2023/05/15 06:34:46;;;;;;;;;;;14.32;24.30;;;;;;2674235;76;20305;-89
2023/05/15 06:38:14;;;;;;;;;;;14.60;23.43;;;;;;2674127;76;20322;-89
2023/05/15 06:41:42;;;;;;;;;;;14.60;23.51;;;;;;2673374;76;20361;-88
2023/05/15 06:45:11;;;;;;;;;;;14.84;23.03;;;;;;2506247;76;10592973;-88
2023/05/15 06:48:39;;;;;;;;;;;15.21;21.93;;;;;;2673796;76;20816;-89
2023/05/15 06:52:07;;;;;;;;;;;15.63;20.82;;;;;;2674015;76;20688;-89
2023/05/15 06:55:36;;;;;;;;;;;15.65;18.92;;;;;;2674080;76;20324;-89
2023/05/15 06:59:07;;;;;;;;;;;15.77;17.95;;;;;;2674546;76;20346;-88
2023/05/15 07:02:35;;;;;;;;;;;16.03;17.10;;;;;;2674074;76;20361;-88
2023/05/15 07:06:03;;;;;;;;;;;15.91;15.58;;;;;;2674340;76;20395;-89
2023/05/15 07:09:31;;;;;;;;;;;15.99;14.99;;;;;;2673871;76;20339;-88
2023/05/15 07:12:59;;;;;;;;;;;16.19;14.61;;;;;;2673972;76;20339;-88
2023/05/15 07:16:27;;;;;;;;;;;16.48;13.26;;;;;;2673370;76;20330;-88
2023/05/15 07:19:55;;;;;;;;;;;17.05;12.56;;;;;;2673660;76;20346;-89
2023/05/15 07:23:23;;;;;;;;;;;17.28;10.88;;;;;;2570853;76;5338816;-89
2023/05/15 07:26:51;;;;;;;;;;;16.86;10.22;;;;;;2673161;76;20819;-89
2023/05/15 07:30:20;;;;;;;;;;;16.96;10.62;;;;;;2674586;76;20748;-89
2023/05/15 07:33:48;;;;;;;;;;;16.95;10.98;;;;;;2674349;76;20409;-89
2023/05/15 07:37:16;;;;;;;;;;;17.31;9.72;;;;;;2672555;76;20304;-89
2023/05/15 07:40:44;;;;;;;;;;;17.35;8.99;;;;;;2673929;76;20350;-89
2023/05/15 07:44:12;;;;;;;;;;;18.24;8.89;;;;;;2674522;76;20314;-89
2023/05/15 07:47:40;;;;;;;;;;;17.98;7.06;;;;;;2673758;76;20318;-87
2023/05/15 07:51:08;;;;;;;;;;;18.65;6.07;;;;;;2673807;76;20795;-89
2023/05/15 07:54:38;;;;;;;;;;;18.82;3.81;;;;;;2673982;76;20320;-89
2023/05/15 07:58:07;;;;;;;;;;;18.73;3.48;;;;;;2674263;76;20335;-89
2023/05/15 08:01:35;;;;;;;;;;;19.33;2.93;;;;;;2674842;76;20347;-89
2023/05/15 08:05:04;;;;;;;;;;;19.90;0.52;;;;;;2673429;76;20388;-89
2023/05/15 08:08:32;;;;;;;;;;;19.91;-1.04;;;;;;2674390;76;20321;-89
2023/05/15 08:12:00;;;;;;;;;;;19.85;-1.06;;;;;;2674621;76;20308;-88
2023/05/15 08:15:28;;;;;;;;;;;19.65;-0.89;;;;;;2674101;76;20332;-88
2023/05/15 08:19:00;;;;;;;;;;;20.29;-0.75;;;;;;2673938;76;20645;-89
2023/05/15 08:22:26;;;;;;;;;;;20.15;-1.67;;;;;;2673260;76;21155;-89
2023/05/15 08:25:54;;;;;;;;;;;19.85;-1.40;;;;;;2674327;76;20328;-89
2023/05/15 08:29:23;;;;;;;;;;;20.22;-1.03;;;;;;2662240;76;83065;-89
2023/05/15 08:32:51;;;;;;;;;;;20.31;-2.18;;;;;;2674637;76;20350;-90
2023/05/15 08:36:19;;;;;;;;;;;20.68;-3.62;;;;;;2673892;76;20311;-90
2023/05/15 08:39:47;;;;;;;;;;;21.13;-3.91;;;;;;2674074;76;20324;-88
2023/05/15 08:43:15;;;;;;;;;;;21.64;-4.15;;;;;;2674269;76;20334;-89
2023/05/15 08:46:43;;;;;;;;;;;21.35;-4.99;;;;;;2674093;76;20339;-89
2023/05/15 08:50:12;;;;;;;;;;;21.16;118.95;;;;;;2674493;76;20349;-89
2023/05/15 08:53:41;;;;;;;;;;;21.75;118.62;;;;;;2674362;76;20378;-90
2023/05/15 08:57:09;;;;;;;;;;;21.37;118.02;;;;;;2664490;76;36859;-87
2023/05/15 09:00:37;;;;;;;;;;;20.66;117.80;;;;;;2674129;76;20356;-90
2023/05/15 09:04:05;;;;;;;;;;;21.08;118.17;;;;;;2674220;76;20752;-89
2023/05/15 09:07:33;;;;;;;;;;;21.38;117.78;;;;;;2674568;76;20349;-89
2023/05/15 09:11:02;;;;;;;;;;;21.46;118.05;;;;;;2674386;76;20359;-89
2023/05/15 09:14:30;;;;;;;;;;;20.33;117.69;;;;;;2674419;76;20328;-87
2023/05/15 09:17:59;;;;;;;;;;;21.07;117.89;;;;;;2674115;76;20353;-90
2023/05/15 09:21:27;;;;;;;;;;;21.50;116.62;;;;;;2677643;76;20322;-89
2023/05/15 09:24:56;;;;;;;;;;;20.57;117.07;;;;;;2674287;76;20321;-89
2023/05/15 09:28:25;;;;;;;;;;;19.94;117.76;;;;;;2674895;76;20324;-89
2023/05/15 09:31:53;;;;;;;;;;;20.63;118.03;;;;;;2674310;76;20788;-89
2023/05/15 09:35:21;;;;;;;;;;;20.49;117.70;;;;;;2674108;76;20361;-89
2023/05/15 09:41:14;;;;;;;4.22;2.95;;;20.30;118.18;;;;;;2673056;76;25051;-90
2023/05/15 09:44:42;;;;;;;;;;;19.62;-5.50;;;;;;2673831;75;22149;-89
2023/05/15 09:48:11;;;;;;;7.15;3.42;;;18.94;-4.18;;;;;;2673298;76;21082;-89
2023/05/15 09:51:39;;;;;;;;;;;19.38;-3.73;;;;;;2673420;76;22806;-89
2023/05/15 09:55:09;;;;;;;5.45;2.47;;;19.80;-4.63;;;;;;2672869;76;21561;-89
2023/05/15 09:58:38;;;;;;;;;;;18.88;-3.18;;;;;;2673600;75;22316;-89
2023/05/15 10:02:07;;;;;;;3.92;2.30;;;18.65;-3.13;;;;;;2671942;76;21164;-88
2023/05/15 10:05:35;;;;;;;;;;;18.58;-3.27;;;;;;2672815;76;22274;-89
2023/05/15 10:09:05;;;;;;;4.15;2.65;;;18.53;-3.42;;;;;;2673563;76;21175;-89
2023/05/15 10:12:35;;;;;;;;;;;18.48;-3.24;;;;;;2674000;76;22152;-89
2023/05/15 10:16:04;;;;;;;4.35;1.98;;;18.67;-3.31;;;;;;2672766;75;21120;-88
2023/05/15 10:19:33;;;;;;;;;;;19.56;-4.18;;;;;;2673364;76;22255;-89
2023/05/15 10:23:03;;;;;;;4.47;2.60;;;19.69;-4.75;;;;;;2672137;75;21672;-89
2023/05/15 10:26:31;;;;;;;;;;;20.51;-5.95;;;;;;2674177;76;22248;-88
2023/05/15 10:30:00;;;;;;;4.28;2.72;;;21.16;118.02;;;;;;2673464;76;21148;-88
2023/05/15 10:33:28;;;;;;;;;;;21.08;118.09;;;;;;2673432;75;22278;-89
2023/05/15 10:36:57;;;;;;;7.60;2.45;;;21.91;117.24;;;;;;2672774;76;21211;-89
2023/05/15 10:40:25;;;;;;;;;;;22.08;115.97;;;;;;2673355;76;22255;-90
2023/05/15 10:43:55;;;;;;;4.45;2.35;;;22.04;115.20;;;;;;2672646;76;21703;-88
2023/05/15 10:47:23;;;;;;;;;;;22.02;114.74;;;;;;2673716;76;22295;-89
2023/05/15 10:50:52;;;;;;;8.15;2.58;;;20.92;116.41;;;;;;2671472;76;21141;-88
2023/05/15 10:54:20;;;;;;;;;;;20.74;117.03;;;;;;2670610;76;22248;-89
2023/05/15 10:57:49;;;;;;;5.12;2.95;;;20.61;117.29;;;;;;2671247;76;21208;-88
2023/05/15 11:01:17;;;;;;;;;;;20.44;117.32;;;;;;2671628;76;22219;-88
2023/05/15 11:04:46;;;;;;;2.85;2.08;;;20.26;116.45;;;;;;2671643;76;21076;-89
2023/05/15 11:08:14;;;;;;;;;;;20.19;114.80;;;;;;2671299;76;22737;-89
2023/05/15 11:11:57;;;;;;;3.55;2.22;;;20.11;114.00;;;;;;2671136;76;21121;-89
2023/05/15 11:15:25;;;;;;;2.40;1.37;;;20.96;114.12;;;;;;2671730;76;22199;-89
2023/05/15 11:18:54;;;;;;;;;;;21.38;112.42;;;;;;2671733;76;22707;-89
2023/05/15 11:22:34;;;;;;;1.92;1.40;;;22.11;111.70;;;;;;2671237;76;21112;-90
2023/05/15 11:26:05;;;;;;;3.75;2.02;;;22.27;110.94;;;;;;2671665;76;22228;-89
2023/05/15 11:29:34;;;;;;;;;;;22.21;111.11;;;;;;2671609;76;22191;-90
2023/05/15 11:33:07;;;;;;;3.02;1.85;;;21.92;112.04;;;;;;2669063;76;21104;-90
2023/05/15 11:36:34;;;;;;;;;;;21.67;113.85;;;;;;2672388;76;22539;-90
2023/05/15 11:40:05;;;;;;;2.85;1.90;;;21.88;113.14;;;;;;2670782;76;21643;-90
2023/05/15 11:43:34;;;;;;;;;;;21.06;111.50;;;;;;2671548;76;22240;-90
2023/05/15 11:47:03;;;;;;;1.98;1.25;;;20.44;111.68;;;;;;2671306;76;21110;-90
2023/05/15 11:50:32;;;;;;;;;;;19.46;114.80;;;;;;2671894;76;22133;-90
2023/05/15 11:54:01;;;;;;;4.08;2.12;;;19.00;117.76;;;;;;2670861;76;21098;-90
2023/05/15 11:57:29;;;;;;;;;;;18.59;-5.01;;;;;;2672116;76;23175;-91
2023/05/15 12:00:58;;;;;;;4.33;2.12;;;18.44;-3.23;;;;;;2671533;76;21083;-90
2023/05/15 12:04:26;;;;;;;;;;;18.58;-2.63;;;;;;2671468;76;22720;-90
2023/05/15 12:07:55;;;;;;;3.70;2.33;;;18.88;-2.11;;;;;;2671685;76;21627;-90
2023/05/15 12:11:23;;;;;;;;;;;19.11;-1.07;;;;;;2671979;76;22100;-90
2023/05/15 12:14:54;;;;;;;3.20;1.60;;;19.72;-1.65;;;;;;2671154;76;21128;-90
2023/05/15 12:18:22;;;;;;;;;;;20.18;-3.34;;;;;;2672222;76;22089;-90
2023/05/15 12:21:51;;;;;;;2.55;1.00;;;20.59;-4.79;;;;;;2671628;76;21445;-90
2023/05/15 12:25:19;;;;;;;;;;;20.62;118.28;;;;;;2671878;76;22148;-89
2023/05/15 12:28:50;;;;;;;0.95;0.80;;;20.47;117.82;;;;;;2671718;76;21587;-90
2023/05/15 12:32:18;;;;;;;;;;;20.05;116.57;;;;;;2672179;76;22234;-90
2023/05/15 12:35:54;;;;;;;1.32;0.90;;;19.59;115.44;;;;;;2671783;76;21084;-91
2023/05/15 12:39:23;;;;;;;3.00;0.70;;;19.72;115.71;;;;;;2672087;76;22310;-89
2023/05/15 12:42:52;;;;;;;;;;;19.63;112.74;;;;;;2671929;76;22070;-90
2023/05/15 12:46:31;;;;;;;1.20;1.10;;;21.02;111.15;;;;;;2671261;76;21076;-91
2023/05/15 12:50:00;;;;;;;4.30;1.00;;;21.83;109.78;;;;;;2671816;76;22173;-90
2023/05/15 12:53:28;;;;;;;;;;;22.07;109.54;;;;;;2671604;76;22255;-90
2023/05/15 12:56:57;;;;;;;2.15;1.50;;;21.46;111.58;;;;;;2670981;76;21059;-90
2023/05/15 13:00:27;;;;;;;;;;;20.77;112.90;;;;;;2671622;76;22769;-89
2023/05/15 13:03:56;;;;;;;2.70;1.20;;;20.42;113.80;;;;;;2674511;76;21051;-90
2023/05/15 13:07:24;;;;;;;;;;;20.70;113.65;;;;;;2671713;76;22164;-91
2023/05/15 13:10:57;;;;;;;1.67;1.27;;;21.05;113.19;;;;;;2670943;76;21085;-91
2023/05/15 13:14:27;;;;;;;;;;;21.23;111.40;;;;;;2671352;76;22183;-91
2023/05/15 13:17:56;;;;;;;;;;;21.80;110.60;;;;;;2671576;76;21031;-91
2023/05/15 13:21:25;;;;;;;1.52;0.82;;;21.44;108.56;;;;;;2670579;76;21114;-90
2023/05/15 13:24:55;;;;;;;;;;;21.35;108.17;;;;;;2671754;76;22117;-91
2023/05/15 13:28:23;;;;;;;1.47;0.80;;;21.33;107.83;;;;;;2669885;76;21156;-90
2023/05/15 13:31:52;;;;;;;;;;;21.22;107.48;;;;;;2671418;76;22240;-90
2023/05/15 13:35:20;;;;;;;1.32;0.90;;;21.17;107.91;;;;;;2670985;76;21071;-90
2023/05/15 13:38:49;;;;;;;;;;;20.74;107.63;;;;;;2670969;76;22304;-91
2023/05/15 13:42:18;;;;;;;1.35;0.70;;;20.83;108.48;;;;;;2669963;76;21080;-90
2023/05/15 13:45:46;;;;;;;;;;;21.07;108.81;;;;;;2670494;76;22221;-90
2023/05/15 13:49:15;;;;;;;2.22;0.90;;;21.38;108.64;;;;;;2669972;76;21628;-89
2023/05/15 13:52:43;;;;;;;;;;;21.90;108.06;;;;;;2670764;76;22750;-91
2023/05/15 13:56:12;;;;;;;1.07;0.90;;;22.25;107.86;;;;;;2670569;76;21141;-90
2023/05/15 13:59:40;;;;;;;;;;;22.53;107.62;;;;;;2670235;76;22211;-91
2023/05/15 14:03:11;;;;;;;2.30;0.95;;;23.00;107.64;;;;;;2670092;76;20977;-91
2023/05/15 14:06:42;;;;;;;;;;;23.54;106.03;;;;;;2670536;76;22258;-90
2023/05/15 14:10:11;;;;;;;0.98;0.85;;;23.69;106.75;;;;;;2669085;76;21074;-90
2023/05/15 14:13:46;;;;;;;;;;;26.30;105.59;;;;;;2671719;76;22195;-90
2023/05/15 14:17:10;;;;;;;5.75;0.90;;;30.71;99.01;;;;;;2670514;76;21091;-91
2023/05/15 14:20:38;;;;;;;;;;;30.02;96.64;;;;;;2670603;76;22583;-91
2023/05/15 14:24:10;;;;;;;1.45;1.20;;;28.06;97.32;;;;;;2670004;76;21096;-92
2023/05/15 14:27:40;;;;;;;;;;;31.82;89.44;;;;;;2670596;76;22232;-93
2023/05/15 14:31:14;;;;;;;1.05;0.90;;;30.53;86.30;;;;;;2671326;76;21092;-91
2023/05/15 14:34:42;;;;;;;;;;;26.31;92.92;;;;;;2671627;76;22360;-91
2023/05/15 14:38:23;;;;;;;1.72;1.40;;;24.87;98.32;;;;;;2671591;76;21126;-91
2023/05/15 14:41:52;;;;;;;2.05;1.25;;;23.69;101.42;;;;;;2671680;76;22264;-92
2023/05/15 14:45:20;;;;;;;;;;;22.97;103.83;;;;;;2670716;76;22283;-89
2023/05/15 14:48:49;;;;;;;3.62;1.60;;;21.99;107.53;;;;;;2670542;76;21137;-88
2023/05/15 14:52:17;;;;;;;;;;;21.34;109.84;;;;;;2672222;76;22267;-90
2023/05/15 14:55:46;;;;;;;1.98;1.17;;;20.99;110.20;;;;;;2671522;76;21070;-90
2023/05/15 14:59:16;;;;;;;;;;;21.23;110.12;;;;;;2671541;76;22093;-89
2023/05/15 15:02:48;;;;;;;2.35;1.55;;;21.44;109.73;;;;;;2671473;76;20981;-90
2023/05/15 15:06:16;;;;;;;;;;;21.52;109.65;;;;;;2672474;76;22161;-91
2023/05/15 15:09:44;;;;;;;1.02;0.93;;;20.75;110.13;;;;;;2670238;76;21075;-91
2023/05/15 15:13:15;;;;;;;;;;;20.96;110.29;;;;;;2671292;76;22072;-90
2023/05/15 15:16:45;;;;;;;1.62;1.25;;;21.72;110.35;;;;;;2671571;76;20982;-89
2023/05/15 15:20:13;;;;;;;;;;;22.64;108.81;;;;;;2671626;76;22315;-91
2023/05/15 15:23:43;;;;;;;2.95;1.47;;;22.72;107.84;;;;;;2671207;76;21507;-91
2023/05/15 15:27:12;;;;;;;;;;;23.21;107.56;;;;;;2672277;76;22180;-89
2023/05/15 15:30:40;;;;;;;1.62;1.30;;;24.63;105.95;;;;;;2672209;76;21113;-90
2023/05/15 15:34:10;;;;;;;;;;;27.89;99.83;;;;;;2670683;76;22264;-91
2023/05/15 15:37:39;;;;;;;2.02;0.95;;;25.46;100.73;;;;;;2669979;76;21129;-89
2023/05/15 15:41:07;;;;;;;;;;;23.69;103.19;;;;;;2670116;76;22160;-89
2023/05/15 15:44:36;;;;;;;2.22;1.55;;;23.13;105.25;;;;;;2670450;76;21082;-89
2023/05/15 15:48:04;;;;;;;;;;;23.00;106.31;;;;;;2671003;76;22243;-88
2023/05/15 15:51:35;;;;;;;2.67;1.30;;;25.04;104.83;;;;;;2675817;76;21029;-88
2023/05/15 15:55:03;;;;;;;;;;;26.61;100.14;;;;;;2679694;76;22196;-89
2023/05/15 15:58:32;;;;;;;3.75;1.42;;;25.88;102.44;;;;;;2668415;76;21139;-89
2023/05/15 16:02:00;;;;;;;;;;;26.31;102.38;;;;;;2667988;76;22272;-88
2023/05/15 16:05:29;;;;;;;1.98;1.55;;;27.37;101.60;;;;;;2668158;76;21850;-90
2023/05/15 16:08:58;;;;;;;;;;;29.44;97.09;;;;;;2668500;76;22221;-91
2023/05/15 16:12:27;;;;;;;3.67;1.30;;;31.44;93.59;;;;;;2669237;76;21545;-90
2023/05/15 16:15:55;;;;;;;;;;;30.47;91.13;;;;;;2670095;76;22632;-90
2023/05/15 16:19:24;;;;;;;2.22;1.50;;;26.96;94.69;;;;;;2669327;76;21650;-90
2023/05/15 16:22:52;;;;;;;;;;;25.60;98.28;;;;;;2670188;76;22311;-90
2023/05/15 16:26:24;;;;;;;2.90;1.40;;;24.89;100.08;;;;;;2669702;76;21099;-91
2023/05/15 16:29:51;;;;;;;;;;;23.83;101.70;;;;;;2671083;76;22710;-91
2023/05/15 16:33:20;;;;;;;2.40;1.60;;;22.47;103.92;;;;;;2670954;76;21132;-90
2023/05/15 16:36:48;;;;;;;;;;;21.13;106.24;;;;;;2670808;76;22198;-90
2023/05/15 16:40:17;;;;;;;2.42;1.22;;;20.79;107.99;;;;;;2670873;76;21103;-91
2023/05/15 16:43:45;;;;;;;;;;;20.15;109.20;;;;;;2672162;76;22226;-91
2023/05/15 16:47:14;;;;;;;2.65;1.55;;;19.75;110.26;;;;;;2670470;76;20955;-92
2023/05/15 16:50:42;;;;;;;;;;;19.10;111.96;;;;;;2671079;76;22211;-91
2023/05/15 16:54:11;;;;;;;2.85;1.32;;;18.80;112.97;;;;;;2670537;76;21133;-89
2023/05/15 16:57:39;;;;;;;;;;;18.64;114.12;;;;;;2670962;76;22694;-92
2023/05/15 17:01:08;;;;;;;2.65;1.02;;;18.76;114.52;;;;;;2668173;76;21082;-90
2023/05/15 17:04:36;;;;;;;;;;;18.81;115.15;;;;;;2670051;76;22105;-89
2023/05/15 17:08:05;;;;;;;2.55;1.40;;;18.83;115.44;;;;;;2670084;76;21578;-92
2023/05/15 17:11:33;;;;;;;;;;;18.96;116.00;;;;;;2670242;76;22144;-90
2023/05/15 17:15:02;;;;;;;1.55;1.20;;;19.36;115.34;;;;;;2670225;76;22060;-90
2023/05/15 17:18:30;;;;;;;;;;;19.00;116.03;;;;;;2670450;76;22268;-90
2023/05/15 17:22:02;;;;;;;5.72;1.45;;;18.91;116.70;;;;;;2670014;76;21084;-89
2023/05/15 17:25:29;;;;;;;;;;;18.71;117.07;;;;;;2671207;76;22182;-90
2023/05/15 17:29:03;;;;;;;2.87;0.98;;;18.50;117.38;;;;;;2670025;76;21157;-91
2023/05/15 17:32:30;;;;;;;;;;;18.40;117.08;;;;;;2669476;76;22681;-91
2023/05/15 17:35:59;;;;;;;3.08;1.37;;;17.77;117.19;;;;;;2668776;76;21145;-92
2023/05/15 17:39:27;;;;;;;;;;;17.75;117.31;;;;;;2669331;76;22160;-93
2023/05/15 17:42:56;;;;;;;1.40;1.10;;;17.58;117.73;;;;;;2669549;76;21061;-90
2023/05/15 17:46:24;;;;;;;;;;;17.43;118.42;;;;;;2669003;76;22247;-89
2023/05/15 17:50:25;;;;;;;;;;;;;;;;;;;;;
2023/05/15 17:53:44;;;;;;;;;;;17.45;118.87;;;;;;2669291;76;23050;-90
2023/05/15 17:57:21;;;;;;;;;;;17.30;-5.59;;;;;;2671030;76;22224;-91
2023/05/15 18:00:46;;;;;;;1.95;1.15;;;17.09;-4.79;;;;;;2669941;76;21093;-90
2023/05/15 18:04:14;;;;;;;;;;;16.78;-4.23;;;;;;2669846;76;22285;-90
2023/05/15 18:07:56;;;;;;;;;;;;;;;;;;;;;
2023/05/15 18:11:21;;;;;;;2.10;1.50;;;15.98;-2.89;;;;;;2671568;76;22100;-90
2023/05/15 18:14:50;;;;;;;;;;;15.70;-2.17;;;;;;2670291;76;22265;-91
2023/05/15 18:18:24;;;;;;;2.58;1.30;;;15.44;-1.39;;;;;;2671550;76;21114;-91
2023/05/15 18:21:51;;;;;;;;;;;15.15;-0.10;;;;;;2671533;76;22227;-91
2023/05/15 18:25:20;;;;;;;4.60;1.47;;;14.97;0.27;;;;;;2670595;76;21119;-90
2023/05/15 18:28:50;;;;;;;;;;;14.78;0.80;;;;;;2676616;76;22062;-92
2023/05/15 18:32:19;;;;;;;2.55;1.70;;;14.66;1.33;;;;;;2680352;76;21131;-90
2023/05/15 18:35:55;;;;;;;;;;;14.55;2.00;;;;;;2674758;76;22289;-91
2023/05/15 18:39:21;;;;;;;3.15;1.60;;;14.48;2.80;;;;;;2669763;76;21311;-91
2023/05/15 18:42:50;;;;;;;;;;;14.47;3.29;;;;;;2669702;76;22217;-91
2023/05/15 18:46:19;;;;;;;6.95;1.70;;;14.43;3.63;;;;;;2669373;76;21066;-91
2023/05/15 18:49:47;;;;;;;;;;;14.43;4.37;;;;;;2671979;76;22269;-91
2023/05/15 18:53:16;;;;;;;4.03;1.87;;;14.42;4.41;;;;;;2670386;76;21088;-90
2023/05/15 18:56:46;;;;;;;;;;;14.39;4.66;;;;;;2670977;76;22224;-90
2023/05/15 19:00:17;;;;;;;4.03;1.82;;;14.29;5.70;;;;;;2669231;76;21153;-90
2023/05/15 19:03:45;;;;;;;;;;;14.34;5.46;;;;;;2669805;76;22242;-91
2023/05/15 19:07:14;;;;;;;5.75;2.00;;;14.32;5.51;;;;;;2670839;76;21092;-91
2023/05/15 19:10:42;;;;;;;;;;;14.26;5.70;;;;;;2671295;76;22242;-90
2023/05/15 19:14:14;;;;;;;1.92;1.65;;;14.11;6.54;;;;;;2670690;76;21097;-91
2023/05/15 19:17:41;;;;;;;;;;;14.05;7.44;;;;;;2671510;76;22250;-92
2023/05/15 19:21:27;;;;;;;3.22;2.10;;;13.96;7.39;;;;;;2671837;76;20501;-90
2023/05/15 19:24:55;;;;;;;;;;;13.86;7.55;;;;;;2670558;76;22215;-89
2023/05/15 19:28:24;;;;;;;3.87;1.77;;;13.83;7.76;;;;;;2670805;76;21103;-90
2023/05/15 19:31:59;;;;;;;;;;;13.74;7.93;;;;;;2670286;76;22784;-90
2023/05/15 19:35:32;;;;;;;;;;;13.61;8.42;;;;;;2671459;76;21007;-90
2023/05/15 19:39:00;;;;;;;;;;;13.53;8.72;;;;;;2678027;76;21573;-91
2023/05/15 19:42:29;;;;;;;4.03;2.00;;;13.50;8.34;;;;;;2672733;76;20948;-91